sensor_id;sensor_type;location;lat;lon;timestamp;noise_LAeq;noise_LA_min;noise_LA_max;noise_LA01;noise_LA95
67398;Laerm;57728;50.448;18.824;2023-04-24T00:01:49;33.66;32.39;35.63;;
67398;Laerm;57728;50.448;18.824;2023-04-24T00:03:51;33.67;32.47;35.04;;
67398;Laerm;57728;50.448;18.824;2023-04-24T00:05:52;33.69;32.36;34.87;;
67398;Laerm;57728;50.448;18.824;2023-04-24T00:07:54;33.66;32.30;35.14;;
67398;Laerm;57728;50.448;18.824;2023-04-24T00:09:57;33.66;32.38;34.82;;
67398;Laerm;57728;50.448;18.824;2023-04-24T00:11:59;33.68;32.25;34.85;;
67398;Laerm;57728;50.448;18.824;2023-04-24T00:14:03;33.65;32.33;35.93;;
67398;Laerm;57728;50.448;18.824;2023-04-24T00:16:05;33.62;32.54;34.81;;
67398;Laerm;57728;50.448;18.824;2023-04-24T00:18:06;33.64;32.40;34.84;;
67398;Laerm;57728;50.448;18.824;2023-04-24T00:20:09;33.64;32.38;34.88;;
67398;Laerm;57728;50.448;18.824;2023-04-24T00:22:11;33.68;32.47;35.57;;
67398;Laerm;57728;50.448;18.824;2023-04-24T00:24:14;33.66;32.45;35.86;;
67398;Laerm;57728;50.448;18.824;2023-04-24T00:26:16;33.64;32.48;34.94;;
67398;Laerm;57728;50.448;18.824;2023-04-24T00:28:17;33.61;32.44;34.77;;
67398;Laerm;57728;50.448;18.824;2023-04-24T00:30:18;33.60;32.39;34.89;;
67398;Laerm;57728;50.448;18.824;2023-04-24T00:32:20;33.62;32.37;37.36;;
67398;Laerm;57728;50.448;18.824;2023-04-24T00:34:23;33.66;32.34;38.86;;
67398;Laerm;57728;50.448;18.824;2023-04-24T00:36:24;33.63;32.41;34.84;;
67398;Laerm;57728;50.448;18.824;2023-04-24T00:38:26;33.63;32.52;34.87;;
67398;Laerm;57728;50.448;18.824;2023-04-24T00:40:28;33.63;32.37;34.95;;
67398;Laerm;57728;50.448;18.824;2023-04-24T00:42:29;33.73;32.32;39.28;;
67398;Laerm;57728;50.448;18.824;2023-04-24T00:44:33;33.61;32.29;34.79;;
67398;Laerm;57728;50.448;18.824;2023-04-24T00:46:36;33.60;32.14;34.69;;
67398;Laerm;57728;50.448;18.824;2023-04-24T00:48:39;33.61;32.37;34.87;;
67398;Laerm;57728;50.448;18.824;2023-04-24T00:50:42;33.64;32.40;35.99;;
67398;Laerm;57728;50.448;18.824;2023-04-24T00:52:44;33.60;32.48;34.62;;
67398;Laerm;57728;50.448;18.824;2023-04-24T00:54:45;33.67;32.40;36.61;;
67398;Laerm;57728;50.448;18.824;2023-04-24T00:56:48;33.61;32.35;34.69;;
67398;Laerm;57728;50.448;18.824;2023-04-24T00:58:50;33.69;32.49;36.44;;
67398;Laerm;57728;50.448;18.824;2023-04-24T01:00:53;33.61;32.41;34.73;;
67398;Laerm;57728;50.448;18.824;2023-04-24T01:02:59;33.66;32.56;35.07;;
67398;Laerm;57728;50.448;18.824;2023-04-24T01:05:01;33.64;32.37;34.85;;
67398;Laerm;57728;50.448;18.824;2023-04-24T01:07:04;33.63;32.45;34.85;;
67398;Laerm;57728;50.448;18.824;2023-04-24T01:09:12;33.62;32.20;35.01;;
67398;Laerm;57728;50.448;18.824;2023-04-24T01:11:15;33.64;32.40;35.47;;
67398;Laerm;57728;50.448;18.824;2023-04-24T01:13:20;33.66;32.35;35.22;;
67398;Laerm;57728;50.448;18.824;2023-04-24T01:15:23;33.63;32.40;34.77;;
67398;Laerm;57728;50.448;18.824;2023-04-24T01:17:24;33.65;32.38;35.05;;
67398;Laerm;57728;50.448;18.824;2023-04-24T01:19:25;33.64;32.31;35.09;;
67398;Laerm;57728;50.448;18.824;2023-04-24T01:21:30;33.64;32.43;34.82;;
67398;Laerm;57728;50.448;18.824;2023-04-24T01:23:35;33.66;32.43;34.88;;
67398;Laerm;57728;50.448;18.824;2023-04-24T01:25:37;33.66;32.35;34.70;;
67398;Laerm;57728;50.448;18.824;2023-04-24T01:27:39;33.64;32.19;34.70;;
67398;Laerm;57728;50.448;18.824;2023-04-24T01:29:41;33.62;32.37;34.92;;
67398;Laerm;57728;50.448;18.824;2023-04-24T01:31:44;33.62;32.47;34.82;;
67398;Laerm;57728;50.448;18.824;2023-04-24T01:33:47;33.64;32.45;39.10;;
67398;Laerm;57728;50.448;18.824;2023-04-24T01:35:49;33.63;32.18;34.80;;
67398;Laerm;57728;50.448;18.824;2023-04-24T01:37:50;33.62;32.42;34.79;;
67398;Laerm;57728;50.448;18.824;2023-04-24T01:39:52;33.66;32.30;35.05;;
67398;Laerm;57728;50.448;18.824;2023-04-24T01:41:55;33.65;32.17;34.82;;
67398;Laerm;57728;50.448;18.824;2023-04-24T01:43:57;33.66;32.49;34.83;;
67398;Laerm;57728;50.448;18.824;2023-04-24T01:46:00;33.84;32.51;39.82;;
67398;Laerm;57728;50.448;18.824;2023-04-24T01:48:01;33.83;32.44;40.32;;
67398;Laerm;57728;50.448;18.824;2023-04-24T01:50:05;34.03;32.49;42.05;;
67398;Laerm;57728;50.448;18.824;2023-04-24T01:52:07;34.13;32.44;40.14;;
67398;Laerm;57728;50.448;18.824;2023-04-24T01:54:08;34.09;32.67;39.19;;
67398;Laerm;57728;50.448;18.824;2023-04-24T01:56:10;33.91;32.58;43.76;;
67398;Laerm;57728;50.448;18.824;2023-04-24T01:58:13;33.77;32.49;36.16;;
67398;Laerm;57728;50.448;18.824;2023-04-24T02:00:16;33.77;32.46;35.00;;
67398;Laerm;57728;50.448;18.824;2023-04-24T02:02:17;33.84;32.48;41.33;;
67398;Laerm;57728;50.448;18.824;2023-04-24T02:04:19;33.90;32.47;37.62;;
67398;Laerm;57728;50.448;18.824;2023-04-24T02:06:22;34.06;32.44;44.40;;
67398;Laerm;57728;50.448;18.824;2023-04-24T02:08:23;34.36;32.61;51.68;;
67398;Laerm;57728;50.448;18.824;2023-04-24T02:10:25;33.92;32.59;44.55;;
67398;Laerm;57728;50.448;18.824;2023-04-24T02:12:27;33.86;32.50;40.70;;
67398;Laerm;57728;50.448;18.824;2023-04-24T02:14:28;33.89;32.58;42.52;;
67398;Laerm;57728;50.448;18.824;2023-04-24T02:16:30;33.83;32.52;38.61;;
67398;Laerm;57728;50.448;18.824;2023-04-24T02:18:33;34.31;32.73;39.54;;
67398;Laerm;57728;50.448;18.824;2023-04-24T02:20:34;33.99;32.54;37.89;;
67398;Laerm;57728;50.448;18.824;2023-04-24T02:22:37;33.84;32.52;38.77;;
67398;Laerm;57728;50.448;18.824;2023-04-24T02:24:39;33.99;32.62;46.90;;
67398;Laerm;57728;50.448;18.824;2023-04-24T02:26:41;33.88;32.60;38.29;;
67398;Laerm;57728;50.448;18.824;2023-04-24T02:28:43;33.95;32.74;38.36;;
67398;Laerm;57728;50.448;18.824;2023-04-24T02:30:45;33.93;32.56;46.22;;
67398;Laerm;57728;50.448;18.824;2023-04-24T02:32:47;34.08;32.48;46.89;;
67398;Laerm;57728;50.448;18.824;2023-04-24T02:34:49;34.09;32.63;42.43;;
67398;Laerm;57728;50.448;18.824;2023-04-24T02:36:50;33.92;32.62;39.61;;
67398;Laerm;57728;50.448;18.824;2023-04-24T02:38:52;34.04;32.59;38.24;;
67398;Laerm;57728;50.448;18.824;2023-04-24T02:40:54;34.24;32.75;40.06;;
67398;Laerm;57728;50.448;18.824;2023-04-24T02:42:55;34.37;32.50;41.06;;
67398;Laerm;57728;50.448;18.824;2023-04-24T02:44:59;34.38;32.76;40.55;;
67398;Laerm;57728;50.448;18.824;2023-04-24T02:47:01;33.87;32.67;35.41;;
67398;Laerm;57728;50.448;18.824;2023-04-24T02:49:02;33.98;32.59;38.80;;
67398;Laerm;57728;50.448;18.824;2023-04-24T02:51:04;34.04;32.71;37.10;;
67398;Laerm;57728;50.448;18.824;2023-04-24T02:53:06;34.09;32.61;38.35;;
67398;Laerm;57728;50.448;18.824;2023-04-24T02:55:08;34.03;32.70;40.70;;
67398;Laerm;57728;50.448;18.824;2023-04-24T02:57:09;33.89;32.38;37.45;;
67398;Laerm;57728;50.448;18.824;2023-04-24T02:59:14;34.07;32.52;37.94;;
67398;Laerm;57728;50.448;18.824;2023-04-24T03:01:15;34.61;32.66;46.15;;
67398;Laerm;57728;50.448;18.824;2023-04-24T03:03:17;33.93;32.65;38.31;;
67398;Laerm;57728;50.448;18.824;2023-04-24T03:05:19;33.91;32.65;35.66;;
67398;Laerm;57728;50.448;18.824;2023-04-24T03:07:21;34.27;32.39;40.07;;
67398;Laerm;57728;50.448;18.824;2023-04-24T03:09:22;34.19;32.69;39.37;;
67398;Laerm;57728;50.448;18.824;2023-04-24T03:11:24;34.06;32.29;39.06;;
67398;Laerm;57728;50.448;18.824;2023-04-24T03:13:26;34.56;32.75;39.67;;
67398;Laerm;57728;50.448;18.824;2023-04-24T03:15:27;34.05;32.78;38.14;;
67398;Laerm;57728;50.448;18.824;2023-04-24T03:17:30;34.58;32.59;41.35;;
67398;Laerm;57728;50.448;18.824;2023-04-24T03:19:31;34.38;32.79;38.48;;
67398;Laerm;57728;50.448;18.824;2023-04-24T03:21:40;34.12;32.69;38.61;;
67398;Laerm;57728;50.448;18.824;2023-04-24T03:23:43;34.40;32.85;41.48;;
67398;Laerm;57728;50.448;18.824;2023-04-24T03:25:47;34.25;32.92;39.64;;
67398;Laerm;57728;50.448;18.824;2023-04-24T03:27:49;34.85;32.84;39.99;;
67398;Laerm;57728;50.448;18.824;2023-04-24T03:30:01;34.39;32.64;49.42;;
67398;Laerm;57728;50.448;18.824;2023-04-24T03:32:23;34.42;32.98;39.21;;
67398;Laerm;57728;50.448;18.824;2023-04-24T03:34:25;34.41;32.81;40.61;;
67398;Laerm;57728;50.448;18.824;2023-04-24T03:36:27;34.35;32.84;40.27;;
67398;Laerm;57728;50.448;18.824;2023-04-24T03:38:29;34.29;32.94;38.20;;
67398;Laerm;57728;50.448;18.824;2023-04-24T03:40:38;34.40;32.95;38.63;;
67398;Laerm;57728;50.448;18.824;2023-04-24T03:42:49;34.64;32.97;39.45;;
67398;Laerm;57728;50.448;18.824;2023-04-24T03:44:50;34.47;33.04;38.26;;
67398;Laerm;57728;50.448;18.824;2023-04-24T03:46:53;34.37;32.89;39.90;;
67398;Laerm;57728;50.448;18.824;2023-04-24T03:48:57;34.29;32.88;38.99;;
67398;Laerm;57728;50.448;18.824;2023-04-24T03:51:03;34.05;32.71;38.41;;
67398;Laerm;57728;50.448;18.824;2023-04-24T03:53:06;34.10;32.87;37.99;;
67398;Laerm;57728;50.448;18.824;2023-04-24T03:55:12;34.39;32.89;37.90;;
67398;Laerm;57728;50.448;18.824;2023-04-24T03:57:18;34.23;32.61;36.39;;
67398;Laerm;57728;50.448;18.824;2023-04-24T03:59:31;34.46;32.75;41.63;;
67398;Laerm;57728;50.448;18.824;2023-04-24T04:01:44;34.53;33.03;39.83;;
67398;Laerm;57728;50.448;18.824;2023-04-24T04:03:50;34.18;32.87;37.61;;
67398;Laerm;57728;50.448;18.824;2023-04-24T04:05:55;34.09;32.65;38.51;;
67398;Laerm;57728;50.448;18.824;2023-04-24T04:07:57;34.24;32.76;41.54;;
67398;Laerm;57728;50.448;18.824;2023-04-24T04:10:00;34.42;32.77;40.31;;
67398;Laerm;57728;50.448;18.824;2023-04-24T04:12:01;34.27;32.80;39.46;;
67398;Laerm;57728;50.448;18.824;2023-04-24T04:14:05;34.21;32.96;39.39;;
67398;Laerm;57728;50.448;18.824;2023-04-24T04:16:09;34.92;32.88;41.73;;
67398;Laerm;57728;50.448;18.824;2023-04-24T04:18:10;34.47;32.82;38.54;;
67398;Laerm;57728;50.448;18.824;2023-04-24T04:20:12;34.67;32.69;42.48;;
67398;Laerm;57728;50.448;18.824;2023-04-24T04:22:15;34.50;33.03;40.62;;
67398;Laerm;57728;50.448;18.824;2023-04-24T04:24:19;34.30;32.93;37.36;;
67398;Laerm;57728;50.448;18.824;2023-04-24T04:26:26;34.32;32.96;45.01;;
67398;Laerm;57728;50.448;18.824;2023-04-24T04:28:38;34.37;32.69;39.09;;
67398;Laerm;57728;50.448;18.824;2023-04-24T04:30:40;34.42;32.83;40.74;;
67398;Laerm;57728;50.448;18.824;2023-04-24T04:32:43;35.08;33.19;40.77;;
67398;Laerm;57728;50.448;18.824;2023-04-24T04:34:44;37.79;33.14;55.20;;
67398;Laerm;57728;50.448;18.824;2023-04-24T04:36:46;34.74;33.04;43.32;;
67398;Laerm;57728;50.448;18.824;2023-04-24T04:39:02;34.32;32.97;37.45;;
67398;Laerm;57728;50.448;18.824;2023-04-24T04:41:20;34.26;32.74;41.96;;
67398;Laerm;57728;50.448;18.824;2023-04-24T04:43:23;34.42;32.91;41.09;;
67398;Laerm;57728;50.448;18.824;2023-04-24T04:45:27;34.38;32.93;41.75;;
67398;Laerm;57728;50.448;18.824;2023-04-24T04:47:54;35.45;32.89;58.97;;
67398;Laerm;57728;50.448;18.824;2023-04-24T04:49:56;34.54;32.92;39.74;;
67398;Laerm;57728;50.448;18.824;2023-04-24T04:52:01;34.32;32.67;40.40;;
67398;Laerm;57728;50.448;18.824;2023-04-24T04:54:03;34.59;32.98;42.28;;
67398;Laerm;57728;50.448;18.824;2023-04-24T04:56:06;34.47;32.63;40.83;;
67398;Laerm;57728;50.448;18.824;2023-04-24T04:58:15;34.40;32.69;49.02;;
67398;Laerm;57728;50.448;18.824;2023-04-24T05:00:18;34.07;32.73;38.49;;
67398;Laerm;57728;50.448;18.824;2023-04-24T05:02:25;34.56;32.83;41.34;;
67398;Laerm;57728;50.448;18.824;2023-04-24T05:04:27;34.43;32.59;41.24;;
67398;Laerm;57728;50.448;18.824;2023-04-24T05:06:28;34.96;32.85;41.83;;
67398;Laerm;57728;50.448;18.824;2023-04-24T05:08:30;34.87;32.85;46.14;;
67398;Laerm;57728;50.448;18.824;2023-04-24T05:10:32;34.61;32.88;41.67;;
67398;Laerm;57728;50.448;18.824;2023-04-24T05:12:33;34.52;32.72;47.32;;
67398;Laerm;57728;50.448;18.824;2023-04-24T05:14:36;34.83;32.94;40.55;;
67398;Laerm;57728;50.448;18.824;2023-04-24T05:16:39;34.35;32.77;38.97;;
67398;Laerm;57728;50.448;18.824;2023-04-24T05:18:42;36.67;33.03;54.82;;
67398;Laerm;57728;50.448;18.824;2023-04-24T05:20:45;34.72;32.69;49.08;;
67398;Laerm;57728;50.448;18.824;2023-04-24T05:22:48;34.82;32.72;47.49;;
67398;Laerm;57728;50.448;18.824;2023-04-24T05:24:50;34.93;32.90;41.43;;
67398;Laerm;57728;50.448;18.824;2023-04-24T05:27:15;34.32;32.75;44.45;;
67398;Laerm;57728;50.448;18.824;2023-04-24T05:29:17;34.46;32.80;38.37;;
67398;Laerm;57728;50.448;18.824;2023-04-24T05:31:20;34.68;32.93;39.47;;
67398;Laerm;57728;50.448;18.824;2023-04-24T05:33:21;34.40;32.98;38.97;;
67398;Laerm;57728;50.448;18.824;2023-04-24T05:35:24;34.18;32.90;39.93;;
67398;Laerm;57728;50.448;18.824;2023-04-24T05:37:26;34.22;32.68;44.09;;
67398;Laerm;57728;50.448;18.824;2023-04-24T05:39:27;35.25;32.97;42.72;;
67398;Laerm;57728;50.448;18.824;2023-04-24T05:41:30;34.42;32.63;40.63;;
67398;Laerm;57728;50.448;18.824;2023-04-24T05:43:31;34.63;33.09;39.02;;
67398;Laerm;57728;50.448;18.824;2023-04-24T05:45:32;34.47;32.96;39.70;;
67398;Laerm;57728;50.448;18.824;2023-04-24T05:47:37;35.03;33.08;47.18;;
67398;Laerm;57728;50.448;18.824;2023-04-24T05:49:38;34.57;33.02;38.65;;
67398;Laerm;57728;50.448;18.824;2023-04-24T05:51:39;34.74;32.85;39.78;;
67398;Laerm;57728;50.448;18.824;2023-04-24T05:53:42;34.46;32.71;38.45;;
67398;Laerm;57728;50.448;18.824;2023-04-24T05:55:45;34.63;32.89;40.54;;
67398;Laerm;57728;50.448;18.824;2023-04-24T05:57:46;34.81;32.79;45.44;;
67398;Laerm;57728;50.448;18.824;2023-04-24T05:59:48;34.73;32.92;47.72;;
67398;Laerm;57728;50.448;18.824;2023-04-24T06:01:50;34.31;32.94;40.12;;
67398;Laerm;57728;50.448;18.824;2023-04-24T06:03:55;34.48;32.82;39.51;;
67398;Laerm;57728;50.448;18.824;2023-04-24T06:05:57;34.92;32.83;54.87;;
67398;Laerm;57728;50.448;18.824;2023-04-24T06:07:59;34.70;32.97;40.91;;
67398;Laerm;57728;50.448;18.824;2023-04-24T06:10:05;34.49;32.83;39.68;;
67398;Laerm;57728;50.448;18.824;2023-04-24T06:12:14;34.57;32.91;39.25;;
67398;Laerm;57728;50.448;18.824;2023-04-24T06:14:31;34.57;32.84;39.67;;
67398;Laerm;57728;50.448;18.824;2023-04-24T06:16:48;34.63;33.01;44.35;;
67398;Laerm;57728;50.448;18.824;2023-04-24T06:19:01;34.66;33.03;42.45;;
67398;Laerm;57728;50.448;18.824;2023-04-24T06:21:03;34.62;32.96;40.60;;
67398;Laerm;57728;50.448;18.824;2023-04-24T06:23:05;34.29;32.72;37.84;;
67398;Laerm;57728;50.448;18.824;2023-04-24T06:25:08;34.36;32.81;44.51;;
67398;Laerm;57728;50.448;18.824;2023-04-24T06:27:10;34.31;32.84;39.74;;
67398;Laerm;57728;50.448;18.824;2023-04-24T06:29:11;34.17;32.81;38.52;;
67398;Laerm;57728;50.448;18.824;2023-04-24T06:31:14;34.67;32.84;39.82;;
67398;Laerm;57728;50.448;18.824;2023-04-24T06:33:16;34.48;32.77;38.41;;
67398;Laerm;57728;50.448;18.824;2023-04-24T06:35:17;34.61;33.00;37.73;;
67398;Laerm;57728;50.448;18.824;2023-04-24T06:37:23;34.47;32.83;40.42;;
67398;Laerm;57728;50.448;18.824;2023-04-24T06:39:24;34.30;33.00;37.52;;
67398;Laerm;57728;50.448;18.824;2023-04-24T06:41:25;34.34;32.99;38.25;;
67398;Laerm;57728;50.448;18.824;2023-04-24T06:43:28;34.37;32.80;37.70;;
67398;Laerm;57728;50.448;18.824;2023-04-24T06:45:29;34.37;32.89;39.08;;
67398;Laerm;57728;50.448;18.824;2023-04-24T06:47:31;34.48;33.10;40.31;;
67398;Laerm;57728;50.448;18.824;2023-04-24T06:49:36;34.59;32.83;50.31;;
67398;Laerm;57728;50.448;18.824;2023-04-24T06:51:38;34.45;32.70;39.64;;
67398;Laerm;57728;50.448;18.824;2023-04-24T06:53:39;34.28;32.72;36.95;;
67398;Laerm;57728;50.448;18.824;2023-04-24T06:55:42;35.12;32.76;42.55;;
67398;Laerm;57728;50.448;18.824;2023-04-24T06:57:44;35.76;33.32;46.64;;
67398;Laerm;57728;50.448;18.824;2023-04-24T06:59:46;35.49;33.21;46.31;;
67398;Laerm;57728;50.448;18.824;2023-04-24T07:01:48;34.59;33.02;40.58;;
67398;Laerm;57728;50.448;18.824;2023-04-24T07:03:49;34.29;32.88;41.25;;
67398;Laerm;57728;50.448;18.824;2023-04-24T07:05:50;34.82;32.97;39.08;;
67398;Laerm;57728;50.448;18.824;2023-04-24T07:07:53;34.49;33.02;42.26;;
67398;Laerm;57728;50.448;18.824;2023-04-24T07:09:54;34.89;33.22;40.75;;
67398;Laerm;57728;50.448;18.824;2023-04-24T07:11:57;35.40;33.25;48.32;;
67398;Laerm;57728;50.448;18.824;2023-04-24T07:13:59;35.94;33.25;53.26;;
67398;Laerm;57728;50.448;18.824;2023-04-24T07:16:00;34.78;33.19;41.87;;
67398;Laerm;57728;50.448;18.824;2023-04-24T07:18:01;35.29;33.05;48.64;;
67398;Laerm;57728;50.448;18.824;2023-04-24T07:20:04;35.04;33.15;51.64;;
67398;Laerm;57728;50.448;18.824;2023-04-24T07:22:06;34.55;33.22;41.61;;
67398;Laerm;57728;50.448;18.824;2023-04-24T07:24:07;35.38;33.26;44.54;;
67398;Laerm;57728;50.448;18.824;2023-04-24T07:26:12;34.44;33.10;37.75;;
67398;Laerm;57728;50.448;18.824;2023-04-24T07:28:15;35.27;33.03;46.13;;
67398;Laerm;57728;50.448;18.824;2023-04-24T07:30:18;35.28;33.07;48.64;;
67398;Laerm;57728;50.448;18.824;2023-04-24T07:32:20;34.37;33.04;40.92;;
67398;Laerm;57728;50.448;18.824;2023-04-24T07:34:21;34.70;32.95;45.20;;
67398;Laerm;57728;50.448;18.824;2023-04-24T07:36:23;34.26;32.96;35.80;;
67398;Laerm;57728;50.448;18.824;2023-04-24T07:38:26;34.68;33.14;39.94;;
67398;Laerm;57728;50.448;18.824;2023-04-24T07:40:27;34.41;32.99;39.31;;
67398;Laerm;57728;50.448;18.824;2023-04-24T07:42:28;34.48;33.20;39.04;;
67398;Laerm;57728;50.448;18.824;2023-04-24T07:44:32;34.27;33.04;36.73;;
67398;Laerm;57728;50.448;18.824;2023-04-24T07:46:33;34.84;32.98;46.53;;
67398;Laerm;57728;50.448;18.824;2023-04-24T07:48:35;34.49;32.86;40.21;;
67398;Laerm;57728;50.448;18.824;2023-04-24T07:50:37;35.15;32.99;55.79;;
67398;Laerm;57728;50.448;18.824;2023-04-24T07:52:38;35.05;33.13;45.94;;
67398;Laerm;57728;50.448;18.824;2023-04-24T07:54:39;34.46;33.00;37.73;;
67398;Laerm;57728;50.448;18.824;2023-04-24T07:56:43;34.92;33.16;45.77;;
67398;Laerm;57728;50.448;18.824;2023-04-24T07:58:44;35.05;33.22;44.80;;
67398;Laerm;57728;50.448;18.824;2023-04-24T08:00:46;34.79;33.11;43.98;;
67398;Laerm;57728;50.448;18.824;2023-04-24T08:02:48;34.81;33.29;47.52;;
67398;Laerm;57728;50.448;18.824;2023-04-24T08:04:49;34.68;33.21;43.64;;
67398;Laerm;57728;50.448;18.824;2023-04-24T08:06:51;34.80;32.92;41.32;;
67398;Laerm;57728;50.448;18.824;2023-04-24T08:08:53;34.76;32.95;39.58;;
67398;Laerm;57728;50.448;18.824;2023-04-24T08:10:55;35.00;33.06;40.60;;
67398;Laerm;57728;50.448;18.824;2023-04-24T08:12:56;34.44;32.90;37.48;;
67398;Laerm;57728;50.448;18.824;2023-04-24T08:14:58;34.63;33.15;40.88;;
67398;Laerm;57728;50.448;18.824;2023-04-24T08:16:59;34.82;33.31;40.27;;
67398;Laerm;57728;50.448;18.824;2023-04-24T08:19:01;34.77;32.94;48.18;;
67398;Laerm;57728;50.448;18.824;2023-04-24T08:21:04;34.71;32.94;42.14;;
67398;Laerm;57728;50.448;18.824;2023-04-24T08:23:05;34.73;33.09;40.00;;
67398;Laerm;57728;50.448;18.824;2023-04-24T08:25:08;35.91;33.20;49.57;;
67398;Laerm;57728;50.448;18.824;2023-04-24T08:27:11;35.22;33.07;47.80;;
67398;Laerm;57728;50.448;18.824;2023-04-24T08:29:12;34.81;32.80;45.94;;
67398;Laerm;57728;50.448;18.824;2023-04-24T08:31:14;34.45;32.98;38.61;;
67398;Laerm;57728;50.448;18.824;2023-04-24T08:33:16;34.53;33.09;40.72;;
67398;Laerm;57728;50.448;18.824;2023-04-24T08:35:17;34.74;32.95;51.51;;
67398;Laerm;57728;50.448;18.824;2023-04-24T08:37:20;35.36;33.16;41.12;;
67398;Laerm;57728;50.448;18.824;2023-04-24T08:39:22;34.78;33.20;38.51;;
67398;Laerm;57728;50.448;18.824;2023-04-24T08:41:24;35.51;33.06;50.85;;
67398;Laerm;57728;50.448;18.824;2023-04-24T08:43:27;35.78;32.95;51.56;;
67398;Laerm;57728;50.448;18.824;2023-04-24T08:45:29;34.61;32.78;43.19;;
67398;Laerm;57728;50.448;18.824;2023-04-24T08:47:32;35.22;32.83;50.60;;
67398;Laerm;57728;50.448;18.824;2023-04-24T08:49:37;35.22;32.95;45.86;;
67398;Laerm;57728;50.448;18.824;2023-04-24T08:51:39;34.50;32.88;42.13;;
67398;Laerm;57728;50.448;18.824;2023-04-24T08:53:41;34.50;32.71;44.68;;
67398;Laerm;57728;50.448;18.824;2023-04-24T08:55:48;34.32;32.85;42.25;;
67398;Laerm;57728;50.448;18.824;2023-04-24T08:57:52;34.96;32.80;43.86;;
67398;Laerm;57728;50.448;18.824;2023-04-24T08:59:55;35.29;33.19;47.63;;
67398;Laerm;57728;50.448;18.824;2023-04-24T09:01:57;34.66;32.85;42.80;;
67398;Laerm;57728;50.448;18.824;2023-04-24T09:04:03;34.96;33.06;40.59;;
67398;Laerm;57728;50.448;18.824;2023-04-24T09:06:06;34.46;32.64;37.90;;
67398;Laerm;57728;50.448;18.824;2023-04-24T09:08:09;34.30;32.89;40.38;;
67398;Laerm;57728;50.448;18.824;2023-04-24T09:10:13;34.77;32.95;44.41;;
67398;Laerm;57728;50.448;18.824;2023-04-24T09:12:15;34.88;32.83;44.74;;
67398;Laerm;57728;50.448;18.824;2023-04-24T09:14:17;34.30;32.66;38.25;;
67398;Laerm;57728;50.448;18.824;2023-04-24T09:16:20;34.67;32.94;43.33;;
67398;Laerm;57728;50.448;18.824;2023-04-24T09:18:21;34.60;32.83;49.72;;
67398;Laerm;57728;50.448;18.824;2023-04-24T09:20:22;34.45;32.70;38.36;;
67398;Laerm;57728;50.448;18.824;2023-04-24T09:22:24;34.44;32.68;40.44;;
67398;Laerm;57728;50.448;18.824;2023-04-24T09:24:26;35.82;33.06;53.47;;
67398;Laerm;57728;50.448;18.824;2023-04-24T09:26:31;35.33;32.93;50.73;;
67398;Laerm;57728;50.448;18.824;2023-04-24T09:28:40;34.28;32.79;41.33;;
67398;Laerm;57728;50.448;18.824;2023-04-24T09:30:41;34.56;32.97;44.96;;
67398;Laerm;57728;50.448;18.824;2023-04-24T09:32:42;34.60;32.96;41.84;;
67398;Laerm;57728;50.448;18.824;2023-04-24T09:34:47;34.51;33.00;41.54;;
67398;Laerm;57728;50.448;18.824;2023-04-24T09:36:50;34.72;33.12;42.09;;
67398;Laerm;57728;50.448;18.824;2023-04-24T09:38:58;34.50;32.89;40.67;;
67398;Laerm;57728;50.448;18.824;2023-04-24T09:41:07;34.54;32.88;50.14;;
67398;Laerm;57728;50.448;18.824;2023-04-24T09:43:12;34.50;32.77;46.92;;
67398;Laerm;57728;50.448;18.824;2023-04-24T09:45:13;34.61;32.66;41.33;;
67398;Laerm;57728;50.448;18.824;2023-04-24T09:47:16;34.73;33.12;41.77;;
67398;Laerm;57728;50.448;18.824;2023-04-24T09:49:27;34.97;33.07;48.30;;
67398;Laerm;57728;50.448;18.824;2023-04-24T09:51:36;34.54;32.77;41.98;;
67398;Laerm;57728;50.448;18.824;2023-04-24T09:53:38;34.70;32.82;40.72;;
67398;Laerm;57728;50.448;18.824;2023-04-24T09:55:47;34.46;33.01;42.97;;
67398;Laerm;57728;50.448;18.824;2023-04-24T09:58:01;34.76;32.93;43.68;;
67398;Laerm;57728;50.448;18.824;2023-04-24T10:00:07;35.04;33.05;44.50;;
67398;Laerm;57728;50.448;18.824;2023-04-24T10:02:20;34.84;33.13;48.01;;
67398;Laerm;57728;50.448;18.824;2023-04-24T10:04:27;34.92;32.88;44.38;;
67398;Laerm;57728;50.448;18.824;2023-04-24T10:06:35;34.29;32.88;38.27;;
67398;Laerm;57728;50.448;18.824;2023-04-24T10:08:37;34.53;32.79;43.10;;
67398;Laerm;57728;50.448;18.824;2023-04-24T10:10:43;34.50;33.12;41.53;;
67398;Laerm;57728;50.448;18.824;2023-04-24T10:12:46;34.64;33.03;38.40;;
67398;Laerm;57728;50.448;18.824;2023-04-24T10:14:50;34.55;33.03;37.88;;
67398;Laerm;57728;50.448;18.824;2023-04-24T10:16:54;34.87;32.77;41.27;;
67398;Laerm;57728;50.448;18.824;2023-04-24T10:18:59;34.69;33.00;40.69;;
67398;Laerm;57728;50.448;18.824;2023-04-24T10:21:01;35.13;33.14;47.35;;
67398;Laerm;57728;50.448;18.824;2023-04-24T10:23:05;34.59;33.10;39.44;;
67398;Laerm;57728;50.448;18.824;2023-04-24T10:25:09;34.98;32.94;43.74;;
67398;Laerm;57728;50.448;18.824;2023-04-24T10:27:12;35.22;33.00;47.51;;
67398;Laerm;57728;50.448;18.824;2023-04-24T10:29:18;34.90;32.64;47.31;;
67398;Laerm;57728;50.448;18.824;2023-04-24T10:31:21;34.72;32.89;44.38;;
67398;Laerm;57728;50.448;18.824;2023-04-24T10:33:24;34.48;32.99;41.99;;
67398;Laerm;57728;50.448;18.824;2023-04-24T10:35:31;35.45;33.22;50.86;;
67398;Laerm;57728;50.448;18.824;2023-04-24T10:37:43;35.20;33.21;39.66;;
67398;Laerm;57728;50.448;18.824;2023-04-24T10:39:48;35.14;32.95;51.40;;
67398;Laerm;57728;50.448;18.824;2023-04-24T10:41:53;34.99;33.09;41.92;;
67398;Laerm;57728;50.448;18.824;2023-04-24T10:44:13;34.85;33.15;39.42;;
67398;Laerm;57728;50.448;18.824;2023-04-24T10:46:22;34.87;33.12;39.10;;
67398;Laerm;57728;50.448;18.824;2023-04-24T10:48:27;34.67;32.99;38.03;;
67398;Laerm;57728;50.448;18.824;2023-04-24T10:52:48;35.06;33.00;41.70;;
67398;Laerm;57728;50.448;18.824;2023-04-24T10:54:52;34.93;33.13;41.07;;
67398;Laerm;57728;50.448;18.824;2023-04-24T10:57:26;34.72;33.06;38.76;;
67398;Laerm;57728;50.448;18.824;2023-04-24T10:59:35;34.61;32.91;45.88;;
67398;Laerm;57728;50.448;18.824;2023-04-24T11:01:38;34.45;32.95;42.29;;
67398;Laerm;57728;50.448;18.824;2023-04-24T11:03:54;34.57;32.86;39.54;;
67398;Laerm;57728;50.448;18.824;2023-04-24T11:06:02;34.44;33.14;38.89;;
67398;Laerm;57728;50.448;18.824;2023-04-24T11:08:21;35.07;33.17;51.85;;
67398;Laerm;57728;50.448;18.824;2023-04-24T11:10:28;35.12;32.89;43.91;;
67398;Laerm;57728;50.448;18.824;2023-04-24T11:12:29;34.55;33.00;40.50;;
67398;Laerm;57728;50.448;18.824;2023-04-24T11:14:30;34.50;33.05;38.03;;
67398;Laerm;57728;50.448;18.824;2023-04-24T11:16:54;34.76;33.07;41.04;;
67398;Laerm;57728;50.448;18.824;2023-04-24T11:19:09;37.52;33.12;56.33;;
67398;Laerm;57728;50.448;18.824;2023-04-24T11:21:22;34.67;32.58;41.78;;
67398;Laerm;57728;50.448;18.824;2023-04-24T11:23:24;34.65;33.03;42.72;;
67398;Laerm;57728;50.448;18.824;2023-04-24T11:25:31;34.57;32.93;41.89;;